Time,TemperatureF,DewpointF,PressureIn,WindDirection,WindDirectionDegrees,WindSpeedMPH,WindSpeedGustMPH,Humidity,HourlyPrecipIn,Conditions,Clouds,dailyrainin,SoftwareType,DateUTC
2013-03-02 00:09:00,21.5,15.4,30.15,North,355,0.0,9.0,77,0.00,,---,0.00,VWS V14.01,2013-03-02 06:09:00,
2013-03-02 00:39:00,20.9,15.1,30.15,NW,317,1.0,9.0,78,0.00,,---,0.00,VWS V14.01,2013-03-02 06:39:00,
2013-03-02 01:09:00,20.9,15.4,30.15,North,360,5.0,10.0,79,0.00,,---,0.00,VWS V14.01,2013-03-02 07:09:00,
2013-03-02 01:39:00,20.7,15.2,30.15,North,349,0.0,6.0,79,0.00,,---,0.00,VWS V14.01,2013-03-02 07:39:00,
2013-03-02 02:09:00,20.0,14.8,30.15,North,355,6.0,10.0,80,0.00,,---,0.00,VWS V14.01,2013-03-02 08:09:00,
2013-03-02 02:39:00,19.5,14.4,30.15,NNW,348,0.0,11.0,80,0.00,,---,0.00,VWS V14.01,2013-03-02 08:39:00,
2013-03-02 03:09:00,19.2,14.1,30.14,NNE,18,0.0,1.0,80,0.00,,---,0.00,VWS V14.01,2013-03-02 09:09:00,
2013-03-02 03:39:00,19.0,13.6,30.14,NNW,344,0.0,10.0,79,0.00,,---,0.00,VWS V14.01,2013-03-02 09:39:00,
2013-03-02 04:09:00,18.9,13.5,30.13,North,5,0.0,10.0,79,0.00,,---,0.00,VWS V14.01,2013-03-02 10:09:00,
2013-03-02 04:39:00,18.8,13.4,30.14,North,5,0.0,6.0,79,0.00,,---,0.00,VWS V14.01,2013-03-02 10:39:00,
2013-03-02 05:09:00,18.6,12.9,30.14,North,355,0.0,10.0,78,0.00,,---,0.00,VWS V14.01,2013-03-02 11:09:00,
2013-03-02 05:39:00,18.3,12.6,30.14,North,355,0.0,4.0,78,0.00,,---,0.00,VWS V14.01,2013-03-02 11:39:00,
2013-03-02 06:09:00,17.8,12.1,30.15,NE,40,0.0,10.0,78,0.00,,---,0.00,VWS V14.01,2013-03-02 12:09:00,
2013-03-02 06:39:00,17.6,11.9,30.15,North,351,0.0,7.0,78,0.00,,---,0.00,VWS V14.01,2013-03-02 12:39:00,
2013-03-02 07:09:00,17.3,11.3,30.16,North,355,0.0,11.0,77,0.00,,---,0.00,VWS V14.01,2013-03-02 13:09:00,
2013-03-02 07:39:00,16.8,10.9,30.16,North,11,0.0,12.0,77,0.00,,---,0.00,VWS V14.01,2013-03-02 13:39:00,
2013-03-02 08:09:00,16.3,10.4,30.16,NNW,348,9.0,12.0,77,0.00,,---,0.00,VWS V14.01,2013-03-02 14:09:00,
2013-03-02 08:39:00,16.9,10.7,30.16,North,355,0.0,12.0,76,0.00,,---,0.00,VWS V14.01,2013-03-02 14:39:00,
2013-03-02 09:09:00,18.9,12.0,30.16,North,355,0.0,12.0,74,0.00,,---,0.00,VWS V14.01,2013-03-02 15:09:00,
2013-03-02 09:39:00,21.4,13.8,30.15,North,351,0.0,3.0,72,0.00,,---,0.00,VWS V14.01,2013-03-02 15:39:00,
2013-03-02 10:09:00,22.3,14.7,30.16,NNW,333,0.0,13.0,72,0.00,,---,0.00,VWS V14.01,2013-03-02 16:09:00,
2013-03-02 10:39:00,24.0,15.6,30.15,North,355,2.0,11.0,70,0.01,,---,0.01,VWS V14.01,2013-03-02 16:39:00,
2013-03-02 11:09:00,25.3,16.6,30.15,NNE,25,0.0,11.0,69,0.01,,---,0.01,VWS V14.01,2013-03-02 17:09:00,
2013-03-02 11:39:00,24.1,15.4,30.15,NW,319,1.0,13.0,69,0.03,,---,0.03,VWS V14.01,2013-03-02 17:39:00,
2013-03-02 12:09:00,23.9,14.9,30.14,North,10,3.0,12.0,68,0.03,,---,0.04,VWS V14.01,2013-03-02 18:09:00,
2013-03-02 12:39:00,24.3,15.3,30.13,North,355,0.0,12.0,68,0.03,,---,0.04,VWS V14.01,2013-03-02 18:39:00,
2013-03-02 13:09:00,24.5,15.1,30.12,NNW,330,2.0,12.0,67,0.02,,---,0.05,VWS V14.01,2013-03-02 19:09:00,
2013-03-02 13:39:00,24.7,15.3,30.12,NNW,331,1.0,14.0,67,0.02,,---,0.06,VWS V14.01,2013-03-02 19:39:00,
2013-03-02 14:09:00,24.0,14.3,30.11,NW,323,3.0,12.0,66,0.03,,---,0.07,VWS V14.01,2013-03-02 20:09:00,
2013-03-02 14:39:00,24.3,14.6,30.12,NNW,331,2.0,11.0,66,0.02,,---,0.07,VWS V14.01,2013-03-02 20:39:00,
2013-03-02 15:09:00,24.8,14.4,30.12,NNW,340,1.0,12.0,64,0.02,,---,0.08,VWS V14.01,2013-03-02 21:09:00,
2013-03-02 15:39:00,24.9,14.5,30.12,NNW,336,11.0,12.0,64,0.01,,---,0.08,VWS V14.01,2013-03-02 21:39:00,
2013-03-02 16:09:00,23.8,14.1,30.12,North,355,2.0,11.0,66,0.01,,---,0.08,VWS V14.01,2013-03-02 22:09:00,
2013-03-02 16:39:00,23.9,14.2,30.12,NNW,346,1.0,10.0,66,0.00,,---,0.08,VWS V14.01,2013-03-02 22:39:00,
2013-03-02 17:09:00,22.6,14.0,30.12,North,360,0.0,9.0,69,0.00,,---,0.08,VWS V14.01,2013-03-02 23:09:00,
2013-03-02 17:39:00,21.7,13.4,30.13,North,355,0.0,3.0,70,0.00,,---,0.08,VWS V14.01,2013-03-02 23:39:00,
2013-03-02 18:09:00,20.1,12.5,30.14,NNW,346,0.0,2.0,72,0.00,,---,0.08,VWS V14.01,2013-03-03 00:09:00,
2013-03-02 18:39:00,18.7,12.1,30.15,North,355,1.0,2.0,75,0.00,,---,0.08,VWS V14.01,2013-03-03 00:39:00,
2013-03-02 19:09:00,17.4,11.1,30.15,NNW,338,0.0,1.0,76,0.00,,---,0.08,VWS V14.01,2013-03-03 01:09:00,
2013-03-02 19:39:00,16.6,10.9,30.15,North,355,0.0,1.0,78,0.00,,---,0.08,VWS V14.01,2013-03-03 01:39:00,
2013-03-02 20:09:00,15.4,10.4,30.15,NNW,346,0.0,1.0,80,0.00,,---,0.08,VWS V14.01,2013-03-03 02:09:00,
2013-03-02 20:39:00,14.6,9.8,30.14,NNW,346,0.0,0.0,81,0.00,,---,0.08,VWS V14.01,2013-03-03 02:39:00,
2013-03-02 21:09:00,13.0,8.8,30.14,NNW,346,0.0,0.0,83,0.00,,---,0.08,VWS V14.01,2013-03-03 03:09:00,
2013-03-02 21:39:00,11.0,6.9,30.14,NNW,346,0.0,0.0,83,0.00,,---,0.08,VWS V14.01,2013-03-03 03:39:00,
2013-03-02 22:09:00,10.8,7.4,30.14,NNW,346,0.0,0.0,86,0.00,,---,0.08,VWS V14.01,2013-03-03 04:09:00,
2013-03-02 22:39:00,10.1,6.8,30.13,NNW,346,0.0,0.0,86,0.00,,---,0.08,VWS V14.01,2013-03-03 04:39:00,
2013-03-02 23:09:00,9.5,6.2,30.12,NNW,346,0.0,0.0,86,0.00,,---,0.08,VWS V14.01,2013-03-03 05:09:00,
2013-03-02 23:39:00,8.7,5.4,30.12,NNW,346,0.0,0.0,86,0.00,,---,0.08,VWS V14.01,2013-03-03 05:39:00,